createdAt,value
2018-11-29T00:00:51.793Z,101845.33
2018-11-29T00:03:21.773Z,101828.35
2018-11-29T00:06:03.790Z,101834.95
2018-11-29T00:08:33.501Z,101828.94
2018-11-29T00:11:02.901Z,101826.04
2018-11-29T00:13:31.994Z,101816.84
2018-11-29T00:16:01.300Z,101820.73
2018-11-29T00:18:30.392Z,101815.09
2018-11-29T00:21:03.925Z,101825.84
2018-11-29T00:23:33.304Z,101829.13
2018-11-29T00:26:03.373Z,101827.39
2018-11-29T00:28:32.402Z,101810.38
2018-11-29T00:31:02.700Z,101803.77
2018-11-29T00:33:34.342Z,101805.46
2018-11-29T00:36:03.374Z,101796.16
2018-11-29T00:38:34.418Z,101803.20
2018-11-29T00:41:07.909Z,101802.67
2018-11-29T00:43:37.028Z,101792.53
2018-11-29T00:46:06.193Z,101796.94
2018-11-29T00:48:35.169Z,101789.60
2018-11-29T00:51:04.535Z,101799.84
2018-11-29T00:53:33.522Z,101793.56
2018-11-29T00:56:02.556Z,101793.69
2018-11-29T00:58:31.672Z,101793.29
2018-11-29T01:01:01.151Z,101793.37
2018-11-29T01:03:30.173Z,101790.39
2018-11-29T01:05:59.134Z,101791.68
2018-11-29T01:08:28.130Z,101794.67
2018-11-29T01:10:56.834Z,101794.97
2018-11-29T01:13:25.590Z,101789.42
2018-11-29T01:15:54.670Z,101788.76
2018-11-29T01:18:23.694Z,101785.36
2018-11-29T01:20:52.731Z,101787.75
2018-11-29T01:23:21.779Z,101773.77
2018-11-29T01:25:50.756Z,101783.98
2018-11-29T01:28:19.734Z,101768.91
2018-11-29T01:30:49.467Z,101785.92
2018-11-29T01:33:19.222Z,101788.17
2018-11-29T01:35:48.375Z,101788.42
2018-11-29T01:38:18.132Z,101774.99
2018-11-29T01:40:46.899Z,101772.99
2018-11-29T01:43:16.347Z,101781.88
2018-11-29T01:45:46.409Z,101780.16
2018-11-29T01:48:16.156Z,101774.66
2018-11-29T01:50:44.952Z,101777.17
2018-11-29T01:53:14.295Z,101782.36
2018-11-29T01:55:43.003Z,101792.75
2018-11-29T01:58:12.004Z,101802.39
2018-11-29T02:00:41.131Z,101792.35
2018-11-29T02:03:12.244Z,101796.96
2018-11-29T02:05:41.189Z,101792.30
2018-11-29T02:08:09.887Z,101801.24
2018-11-29T02:10:51.598Z,101801.30
2018-11-29T02:13:21.099Z,101799.86
2018-11-29T02:15:50.189Z,101789.52
2018-11-29T02:18:18.975Z,101777.19
2018-11-29T02:20:47.679Z,101792.25
2018-11-29T02:23:16.752Z,101786.43
2018-11-29T02:25:45.916Z,101783.92
2018-11-29T02:28:14.687Z,101789.02
2018-11-29T02:30:43.731Z,101783.45
2018-11-29T02:33:12.744Z,101775.69
2018-11-29T02:35:41.820Z,101770.52
2018-11-29T02:38:10.535Z,101783.65
2018-11-29T02:40:39.604Z,101777.85
2018-11-29T02:43:08.671Z,101766.08
2018-11-29T02:45:38.360Z,101760.77
2018-11-29T02:48:08.692Z,101753.90
2018-11-29T02:50:37.703Z,101754.57
2018-11-29T02:53:06.420Z,101755.67
2018-11-29T02:55:35.810Z,101755.34
2018-11-29T02:58:05.659Z,101745.33
2018-11-29T03:00:34.685Z,101739.38
2018-11-29T03:03:03.754Z,101739.28
2018-11-29T03:05:32.776Z,101746.07
2018-11-29T03:08:01.788Z,101731.00
2018-11-29T03:10:33.085Z,101728.36
2018-11-29T03:13:02.711Z,101735.14
2018-11-29T03:15:32.374Z,101720.69
2018-11-29T03:18:02.014Z,101727.09
2018-11-29T03:20:32.234Z,101710.39
2018-11-29T03:23:01.801Z,101711.89
2018-11-29T03:25:31.550Z,101710.73
2018-11-29T03:28:01.156Z,101705.04
2018-11-29T03:30:31.991Z,101702.33
2018-11-29T03:33:01.933Z,101700.52
2018-11-29T03:35:31.031Z,101715.05
2018-11-29T03:38:00.508Z,101711.56
2018-11-29T03:40:30.213Z,101702.70
2018-11-29T03:42:59.318Z,101703.94
2018-11-29T03:45:29.531Z,101702.20
2018-11-29T03:47:59.250Z,101702.45
2018-11-29T03:50:28.294Z,101716.65
2018-11-29T03:52:58.576Z,101687.20
2018-11-29T03:55:28.385Z,101698.24
2018-11-29T03:57:57.365Z,101702.70
2018-11-29T04:00:26.765Z,101688.41
2018-11-29T04:02:56.308Z,101686.02
2018-11-29T04:05:25.749Z,101684.84
2018-11-29T04:07:55.214Z,101676.78
2018-11-29T04:10:25.359Z,101677.34
2018-11-29T04:12:55.212Z,101680.15
2018-11-29T04:15:24.230Z,101677.28
2018-11-29T04:17:53.283Z,101682.59
2018-11-29T04:20:22.288Z,101679.22
2018-11-29T04:22:52.354Z,101682.34
2018-11-29T04:25:21.319Z,101660.37
2018-11-29T04:27:51.005Z,101671.41
2018-11-29T04:30:21.133Z,101670.17
2018-11-29T04:32:50.537Z,101656.80
2018-11-29T04:35:20.198Z,101674.98
2018-11-29T04:37:50.061Z,101670.09
2018-11-29T04:40:19.046Z,101677.28
2018-11-29T04:42:48.702Z,101668.14
2018-11-29T04:45:17.943Z,101659.50
2018-11-29T04:47:48.073Z,101653.68
2018-11-29T04:50:19.032Z,101655.97
2018-11-29T04:52:48.577Z,101655.81
2018-11-29T04:55:18.054Z,101646.38
2018-11-29T04:57:47.021Z,101658.11
2018-11-29T05:00:16.299Z,101666.30
2018-11-29T05:02:46.428Z,101670.03
2018-11-29T05:05:15.884Z,101670.54
2018-11-29T05:07:44.943Z,101665.45
2018-11-29T05:10:20.206Z,101664.25
2018-11-29T05:12:50.391Z,101657.39
2018-11-29T05:15:19.460Z,101651.05
2018-11-29T05:17:48.161Z,101655.38
2018-11-29T05:20:18.275Z,101644.22
2018-11-29T05:22:47.363Z,101647.17
2018-11-29T05:25:17.117Z,101634.56
2018-11-29T05:27:46.092Z,101637.93
2018-11-29T05:30:15.667Z,101639.61
2018-11-29T05:32:44.748Z,101641.55
2018-11-29T05:35:14.070Z,101635.44
2018-11-29T05:37:43.071Z,101633.33
2018-11-29T05:40:13.351Z,101631.38
2018-11-29T05:42:42.663Z,101632.96
2018-11-29T05:45:12.387Z,101635.46
2018-11-29T05:47:41.368Z,101637.73
2018-11-29T05:50:13.095Z,101636.30
2018-11-29T05:52:42.320Z,101637.73
2018-11-29T05:55:12.163Z,101642.00
2018-11-29T05:57:41.228Z,101642.70
2018-11-29T06:00:12.063Z,101641.95
2018-11-29T06:02:40.758Z,101651.83
2018-11-29T06:05:10.596Z,101642.59
2018-11-29T06:07:41.301Z,101642.84
2018-11-29T06:10:10.411Z,101648.16
2018-11-29T06:12:40.067Z,101642.79
2018-11-29T06:15:10.669Z,101652.11
2018-11-29T06:17:39.394Z,101663.72
2018-11-29T06:20:13.594Z,101658.55
2018-11-29T06:22:42.876Z,101654.36
2018-11-29T06:25:12.912Z,101654.64
2018-11-29T06:27:41.982Z,101656.47
2018-11-29T06:30:21.444Z,101641.64
2018-11-29T06:32:52.393Z,101646.30
2018-11-29T06:35:22.517Z,101655.40
2018-11-29T06:37:51.819Z,101635.88
2018-11-29T06:40:21.282Z,101642.09
2018-11-29T06:42:51.283Z,101631.55
2018-11-29T06:45:21.175Z,101634.84
2018-11-29T06:47:51.197Z,101627.62
2018-11-29T06:50:20.287Z,101641.48
2018-11-29T06:52:53.405Z,101640.00
2018-11-29T06:55:23.089Z,101626.11
2018-11-29T06:57:53.987Z,101627.87
2018-11-29T07:00:33.196Z,101630.31
2018-11-29T07:03:02.662Z,101620.37
2018-11-29T07:05:31.359Z,101622.10
2018-11-29T07:08:00.084Z,101622.90
2018-11-29T07:10:32.022Z,101627.75
2018-11-29T07:13:01.187Z,101635.05
2018-11-29T07:15:30.186Z,101633.76
2018-11-29T07:17:59.879Z,101631.73
2018-11-29T07:20:29.303Z,101628.33
2018-11-29T07:22:58.392Z,101627.47
2018-11-29T07:25:27.533Z,101620.82
2018-11-29T07:27:56.583Z,101625.93
2018-11-29T07:30:26.535Z,101626.41
2018-11-29T07:32:55.384Z,101624.95
2018-11-29T07:35:24.646Z,101619.95
2018-11-29T07:37:53.698Z,101611.68
2018-11-29T07:40:23.009Z,101604.47
2018-11-29T07:42:53.591Z,101616.16
2018-11-29T07:45:22.804Z,101605.37
2018-11-29T07:47:52.890Z,101607.11
2018-11-29T07:50:25.190Z,101605.72
2018-11-29T07:52:54.271Z,101605.66
2018-11-29T07:55:23.199Z,101594.65
2018-11-29T07:57:53.283Z,101597.63
2018-11-29T08:00:22.325Z,101590.22
2018-11-29T08:02:51.711Z,101590.55
2018-11-29T08:05:20.494Z,101588.45
2018-11-29T08:07:49.704Z,101590.94
2018-11-29T08:10:19.492Z,101583.22
2018-11-29T08:12:48.517Z,101587.52
2018-11-29T08:15:19.500Z,101590.69
2018-11-29T08:17:48.202Z,101589.31
2018-11-29T08:20:21.199Z,101582.07
2018-11-29T08:22:50.311Z,101588.80
2018-11-29T08:25:19.281Z,101590.04
2018-11-29T08:27:48.249Z,101587.25
2018-11-29T08:30:17.251Z,101587.55
2018-11-29T08:32:46.923Z,101571.92
2018-11-29T08:35:16.094Z,101574.00
2018-11-29T08:37:48.891Z,101567.56
2018-11-29T08:40:18.688Z,101572.64
2018-11-29T08:42:47.679Z,101579.95
2018-11-29T08:45:16.395Z,101568.39
2018-11-29T08:47:46.310Z,101571.87
2018-11-29T08:50:15.554Z,101568.98
2018-11-29T08:52:45.204Z,101556.98
2018-11-29T08:55:15.108Z,101561.27
2018-11-29T08:57:45.236Z,101556.59
2018-11-29T09:00:18.094Z,101544.52
2018-11-29T09:02:47.099Z,101547.54
2018-11-29T09:05:16.284Z,101546.84
2018-11-29T09:07:45.915Z,101551.34
2018-11-29T09:10:19.176Z,101549.45
2018-11-29T09:12:48.199Z,101548.02
2018-11-29T09:15:17.397Z,101557.30
2018-11-29T09:17:46.189Z,101549.84
2018-11-29T09:20:21.724Z,101549.91
2018-11-29T09:22:50.821Z,101547.31
2018-11-29T09:25:21.267Z,101552.50
2018-11-29T09:27:50.016Z,101568.39
2018-11-29T09:30:21.167Z,101561.00
2018-11-29T09:32:52.322Z,101558.80
2018-11-29T09:35:21.288Z,101552.64
2018-11-29T09:37:51.125Z,101549.75
2018-11-29T09:40:20.259Z,101546.50
2018-11-29T09:42:49.782Z,101545.25
2018-11-29T09:45:22.820Z,101539.51
2018-11-29T09:47:58.587Z,101536.45
2018-11-29T09:50:28.049Z,101537.41
2018-11-29T09:52:57.506Z,101528.80
2018-11-29T09:55:27.000Z,101525.64
2018-11-29T09:57:56.560Z,101525.55
2018-11-29T10:00:29.869Z,101514.87
2018-11-29T10:03:10.303Z,101521.06
2018-11-29T10:05:39.434Z,101517.47
2018-11-29T10:08:11.975Z,101521.35
2018-11-29T10:10:40.412Z,101527.81
2018-11-29T10:13:09.819Z,101521.35
2018-11-29T10:15:38.828Z,101515.88
2018-11-29T10:18:08.259Z,101508.29
2018-11-29T10:20:37.666Z,101511.23
2018-11-29T10:23:08.014Z,101503.80
2018-11-29T10:25:38.210Z,101504.88
2018-11-29T10:28:16.967Z,101498.55
2018-11-29T10:30:51.269Z,101502.94
2018-11-29T10:33:21.863Z,101495.55
2018-11-29T10:35:50.879Z,101502.43
2018-11-29T10:38:19.960Z,101501.50
2018-11-29T10:40:49.775Z,101506.71
2018-11-29T10:43:19.139Z,101502.77
2018-11-29T10:45:47.824Z,101493.75
2018-11-29T10:48:26.519Z,101507.61
2018-11-29T10:50:55.532Z,101499.45
2018-11-29T10:53:24.911Z,101496.20
2018-11-29T10:55:53.646Z,101492.04
2018-11-29T10:58:22.995Z,101490.91
2018-11-29T11:01:09.277Z,101474.73
2018-11-29T11:03:38.288Z,101476.27
2018-11-29T11:06:07.999Z,101458.80
2018-11-29T11:08:38.633Z,101464.61
2018-11-29T11:11:07.608Z,101474.98
2018-11-29T11:13:37.548Z,101468.21
2018-11-29T11:16:06.626Z,101459.92
2018-11-29T11:18:35.451Z,101467.32
2018-11-29T11:21:04.494Z,101467.10
2018-11-29T11:23:33.208Z,101466.58
2018-11-29T11:26:01.936Z,101460.05
2018-11-29T11:28:30.978Z,101444.88
2018-11-29T11:30:59.670Z,101463.38
2018-11-29T11:33:28.654Z,101449.11
2018-11-29T11:35:57.350Z,101454.14
2018-11-29T11:38:26.755Z,101444.79
2018-11-29T11:40:55.465Z,101444.79
2018-11-29T11:43:25.557Z,101448.88
2018-11-29T11:45:54.256Z,101448.57
2018-11-29T11:48:23.441Z,101446.90
2018-11-29T11:50:52.527Z,101447.08
2018-11-29T11:53:21.248Z,101436.06
2018-11-29T11:55:53.582Z,101444.72
2018-11-29T11:58:21.079Z,101445.77
2018-11-29T12:00:49.784Z,101449.11
2018-11-29T12:03:18.518Z,101454.27
2018-11-29T12:05:47.906Z,101459.64
2018-11-29T12:08:16.915Z,101452.83
2018-11-29T12:10:46.002Z,101452.64
2018-11-29T12:13:15.004Z,101451.68
2018-11-29T12:15:44.386Z,101444.08
2018-11-29T12:18:13.626Z,101447.23
2018-11-29T12:20:42.432Z,101446.95
2018-11-29T12:23:12.669Z,101439.63
2018-11-29T12:25:41.644Z,101435.45
2018-11-29T12:28:12.054Z,101439.05
2018-11-29T12:30:51.405Z,101439.95
2018-11-29T12:33:21.274Z,101442.74
2018-11-29T12:35:50.261Z,101438.73
2018-11-29T12:38:20.303Z,101435.41
2018-11-29T12:40:50.023Z,101440.95
2018-11-29T12:43:19.020Z,101433.63
2018-11-29T12:45:47.747Z,101432.25
2018-11-29T12:48:17.512Z,101437.28
2018-11-29T12:50:46.571Z,101429.59
2018-11-29T12:53:15.575Z,101421.27
2018-11-29T12:55:45.783Z,101412.35
2018-11-29T12:58:17.180Z,101412.52
2018-11-29T13:00:46.168Z,101411.91
2018-11-29T13:03:15.861Z,101411.03
2018-11-29T13:05:46.128Z,101407.34
2018-11-29T13:08:15.908Z,101392.45
2018-11-29T13:10:45.211Z,101380.18
2018-11-29T13:13:14.918Z,101383.91
2018-11-29T13:15:43.949Z,101395.00
2018-11-29T13:18:13.623Z,101390.27
2018-11-29T13:20:43.097Z,101382.61
2018-11-29T13:23:12.733Z,101380.02
2018-11-29T13:25:42.341Z,101365.20
2018-11-29T13:28:11.943Z,101364.77
2018-11-29T13:30:41.453Z,101353.30
2018-11-29T13:33:11.426Z,101345.98
2018-11-29T13:35:41.081Z,101341.00
2018-11-29T13:38:15.169Z,101332.08
2018-11-29T13:40:48.683Z,101323.54
2018-11-29T13:43:17.646Z,101334.05
2018-11-29T13:45:46.316Z,101329.19
2018-11-29T13:48:15.358Z,101326.97
2018-11-29T13:50:44.656Z,101321.45
2018-11-29T13:53:14.524Z,101312.70
2018-11-29T13:55:44.734Z,101310.11
2018-11-29T13:58:13.626Z,101312.08
2018-11-29T14:00:42.694Z,101311.00
2018-11-29T14:03:15.893Z,101290.02
2018-11-29T14:05:46.525Z,101294.83
2018-11-29T14:08:17.250Z,101288.81
2018-11-29T14:10:46.645Z,101288.81
2018-11-29T14:13:15.999Z,101292.78
2018-11-29T14:15:45.012Z,101283.83
2018-11-29T14:18:14.495Z,101285.67
2018-11-29T14:20:43.500Z,101296.80
2018-11-29T14:23:12.545Z,101294.91
2018-11-29T14:25:41.888Z,101293.83
2018-11-29T14:28:11.184Z,101275.91
2018-11-29T14:30:40.059Z,101264.25
2018-11-29T14:33:08.817Z,101258.05
2018-11-29T14:35:37.955Z,101248.66
2018-11-29T14:38:06.958Z,101240.95
2018-11-29T14:40:37.086Z,101231.31
2018-11-29T14:43:06.856Z,101224.91
2018-11-29T14:45:36.199Z,101217.61
2018-11-29T14:48:04.908Z,101225.38
2018-11-29T14:50:37.655Z,101224.38
2018-11-29T14:53:07.373Z,101221.19
2018-11-29T14:55:37.709Z,101230.52
2018-11-29T14:58:07.789Z,101244.28
2018-11-29T15:00:36.896Z,101245.95
2018-11-29T15:03:24.307Z,101239.65
2018-11-29T15:05:53.660Z,101237.05
2018-11-29T15:08:23.416Z,101228.34
2018-11-29T15:10:52.144Z,101212.93
2018-11-29T15:13:21.519Z,101201.95
2018-11-29T15:15:50.257Z,101206.57
2018-11-29T15:18:18.958Z,101208.12
2018-11-29T15:20:48.938Z,101196.89
2018-11-29T15:23:19.658Z,101195.97
2018-11-29T15:25:48.367Z,101190.08
2018-11-29T15:28:17.423Z,101199.86
2018-11-29T15:30:46.544Z,101188.92
2018-11-29T15:33:15.607Z,101188.92
2018-11-29T15:35:44.624Z,101201.45
2018-11-29T15:38:14.232Z,101198.09
2018-11-29T15:40:42.989Z,101204.85
2018-11-29T15:43:12.711Z,101197.58
2018-11-29T15:45:41.451Z,101183.67
2018-11-29T15:48:10.429Z,101180.07
2018-11-29T15:50:39.173Z,101178.66
2018-11-29T15:53:08.107Z,101170.81
2018-11-29T15:55:37.595Z,101170.58
2018-11-29T15:58:06.867Z,101163.69
2018-11-29T16:00:38.039Z,101162.97
2018-11-29T16:03:08.000Z,101173.84
2018-11-29T16:05:36.799Z,101179.87
2018-11-29T16:08:06.320Z,101183.73
2018-11-29T16:10:36.247Z,101187.13
2018-11-29T16:13:06.431Z,101191.38
2018-11-29T16:15:35.153Z,101193.56
2018-11-29T16:18:03.864Z,101193.19
2018-11-29T16:20:37.212Z,101201.73
2018-11-29T16:23:07.139Z,101186.64
2018-11-29T16:25:37.378Z,101179.95
2018-11-29T16:28:06.787Z,101172.97
2018-11-29T16:30:46.350Z,101166.80
2018-11-29T16:33:29.059Z,101168.15
2018-11-29T16:35:57.881Z,101166.98
2018-11-29T16:38:26.882Z,101147.38
2018-11-29T16:40:56.495Z,101161.90
2018-11-29T16:43:25.557Z,101164.44
2018-11-29T16:45:54.559Z,101158.78
2018-11-29T16:48:23.592Z,101159.44
2018-11-29T16:50:52.314Z,101150.26
2018-11-29T16:53:21.678Z,101149.09
2018-11-29T16:55:50.692Z,101157.39
2018-11-29T16:58:27.087Z,101146.08
2018-11-29T17:00:56.148Z,101148.13
2018-11-29T17:03:24.967Z,101134.39
2018-11-29T17:05:54.134Z,101132.85
2018-11-29T17:08:22.835Z,101134.11
2018-11-29T17:10:51.915Z,101131.66
2018-11-29T17:13:21.314Z,101124.84
2018-11-29T17:15:51.055Z,101130.11
2018-11-29T17:18:20.172Z,101121.45
2018-11-29T17:20:50.214Z,101127.05
2018-11-29T17:23:19.955Z,101122.47
2018-11-29T17:25:49.021Z,101109.62
2018-11-29T17:28:18.036Z,101106.91
2018-11-29T17:30:47.139Z,101099.40
2018-11-29T17:33:17.079Z,101100.17
2018-11-29T17:35:46.730Z,101108.62
2018-11-29T17:38:15.762Z,101105.06
2018-11-29T17:40:45.798Z,101103.11
2018-11-29T17:43:15.601Z,101100.70
2018-11-29T17:45:44.667Z,101097.97
2018-11-29T17:48:13.852Z,101101.72
2018-11-29T17:50:44.149Z,101094.81
2018-11-29T17:53:13.110Z,101089.56
2018-11-29T17:55:42.155Z,101092.38
2018-11-29T17:58:14.684Z,101093.64
2018-11-29T18:00:45.256Z,101095.41
2018-11-29T18:03:16.079Z,101093.67
2018-11-29T18:05:44.802Z,101094.66
2018-11-29T18:08:13.886Z,101089.84
2018-11-29T18:10:43.281Z,101082.51
2018-11-29T18:13:16.858Z,101081.34
2018-11-29T18:15:45.594Z,101076.63
2018-11-29T18:18:15.413Z,101077.56
2018-11-29T18:20:44.168Z,101077.44
2018-11-29T18:23:13.260Z,101071.53
2018-11-29T18:25:42.283Z,101063.40
2018-11-29T18:28:11.867Z,101064.54
2018-11-29T18:30:40.586Z,101052.11
2018-11-29T18:33:09.282Z,101054.09
2018-11-29T18:35:38.282Z,101034.58
2018-11-29T18:38:07.652Z,101042.58
2018-11-29T18:40:36.999Z,101032.44
2018-11-29T18:43:07.743Z,101042.42
2018-11-29T18:45:36.786Z,101030.03
2018-11-29T18:48:06.816Z,101019.83
2018-11-29T18:50:36.000Z,101007.55
2018-11-29T18:53:05.694Z,101000.16
2018-11-29T18:55:34.799Z,101016.95
2018-11-29T18:58:03.687Z,101013.76
2018-11-29T19:00:34.025Z,101003.69
2018-11-29T19:03:03.075Z,101008.67
2018-11-29T19:05:32.113Z,101011.73
2018-11-29T19:08:01.183Z,101003.53
2018-11-29T19:10:30.055Z,101005.45
2018-11-29T19:13:12.473Z,101008.63
2018-11-29T19:15:41.330Z,101019.11
2018-11-29T19:18:11.089Z,101009.09
2018-11-29T19:20:39.962Z,100999.28
2018-11-29T19:23:09.482Z,100993.78
2018-11-29T19:25:38.823Z,101001.36
2018-11-29T19:28:08.514Z,101014.81
2018-11-29T19:30:37.898Z,101055.53
2018-11-29T19:33:17.707Z,101074.44
2018-11-29T19:35:52.489Z,101056.78
2018-11-29T19:38:21.561Z,101038.56
2018-11-29T19:40:50.558Z,101046.85
2018-11-29T19:43:19.575Z,101046.30
2018-11-29T19:45:48.813Z,101041.53
2018-11-29T19:48:17.517Z,101046.23
2018-11-29T19:50:46.874Z,101045.48
2018-11-29T19:53:26.247Z,101041.78
2018-11-29T19:56:02.314Z,101045.23
2018-11-29T19:58:32.280Z,101039.59
2018-11-29T20:01:01.577Z,101041.94
2018-11-29T20:03:31.800Z,101044.50
2018-11-29T20:06:00.850Z,101042.02
2018-11-29T20:08:30.101Z,101026.22
2018-11-29T20:10:59.187Z,101037.23
2018-11-29T20:13:27.891Z,101050.17
2018-11-29T20:15:56.761Z,101033.56
2018-11-29T20:18:25.802Z,101011.70
2018-11-29T20:20:54.563Z,100999.13
2018-11-29T20:23:24.209Z,101029.05
2018-11-29T20:25:53.002Z,101041.45
2018-11-29T20:28:21.693Z,101043.50
2018-11-29T20:30:51.308Z,101041.45
2018-11-29T20:33:20.482Z,101047.81
2018-11-29T20:35:49.211Z,101049.64
2018-11-29T20:38:18.538Z,101048.20
2018-11-29T20:40:47.516Z,101052.05
2018-11-29T20:43:16.482Z,101062.64
2018-11-29T20:45:52.663Z,101064.84
2018-11-29T20:48:28.885Z,101057.97
2018-11-29T20:50:59.705Z,101052.17
2018-11-29T20:53:33.209Z,101056.05
2018-11-29T20:56:02.421Z,101057.08
2018-11-29T20:58:31.277Z,101067.45
2018-11-29T21:01:00.297Z,101073.95
2018-11-29T21:03:29.045Z,101079.16
2018-11-29T21:05:58.119Z,101076.19
2018-11-29T21:08:27.219Z,101077.97
2018-11-29T21:10:56.023Z,101071.73
2018-11-29T21:13:25.743Z,101063.01
2018-11-29T21:15:54.532Z,101057.37
2018-11-29T21:18:23.800Z,101060.13
2018-11-29T21:20:53.725Z,101065.72
2018-11-29T21:23:22.721Z,101059.33
2018-11-29T21:25:53.339Z,101050.09
2018-11-29T21:28:22.949Z,101061.89
2018-11-29T21:30:52.865Z,101064.72
2018-11-29T21:33:22.471Z,101063.80
2018-11-29T21:35:51.188Z,101061.75
2018-11-29T21:38:21.505Z,101054.10
2018-11-29T21:41:03.471Z,101054.52
2018-11-29T21:45:26.833Z,101058.58
2018-11-29T21:47:56.788Z,101049.84
2018-11-29T21:50:26.174Z,101059.70
2018-11-29T21:52:55.269Z,101059.20
2018-11-29T21:55:24.086Z,101056.81
2018-11-29T21:57:53.172Z,101062.48
2018-11-29T22:00:24.908Z,101056.81
2018-11-29T22:02:56.347Z,101049.73
2018-11-29T22:05:25.573Z,101048.64
2018-11-29T22:07:54.575Z,101044.10
2018-11-29T22:10:23.932Z,101037.88
2018-11-29T22:12:53.011Z,101037.31
2018-11-29T22:15:21.736Z,101033.14
2018-11-29T22:18:22.383Z,101034.33
2018-11-29T22:21:10.380Z,101026.47
2018-11-29T22:23:39.987Z,101029.71
2018-11-29T22:26:13.824Z,101018.08
2018-11-29T22:28:43.268Z,101016.70
2018-11-29T22:31:12.293Z,101023.30
2018-11-29T22:33:41.924Z,101021.05
2018-11-29T22:36:11.101Z,101024.67
2018-11-29T22:38:40.018Z,101011.03
2018-11-29T22:41:09.085Z,101020.66
2018-11-29T22:43:38.170Z,101018.46
2018-11-29T22:46:07.195Z,101021.23
2018-11-29T22:48:36.223Z,101029.69
2018-11-29T22:51:05.442Z,101030.91
2018-11-29T22:53:34.436Z,101027.53
2018-11-29T22:56:03.164Z,101013.25
2018-11-29T22:58:32.140Z,101011.19
2018-11-29T23:01:02.141Z,101003.92
2018-11-29T23:03:32.056Z,101008.77
2018-11-29T23:06:00.799Z,100990.23
2018-11-29T23:08:29.511Z,100998.77
2018-11-29T23:10:59.043Z,101016.63
2018-11-29T23:13:28.125Z,101025.88
2018-11-29T23:15:57.243Z,101031.11
2018-11-29T23:18:26.311Z,101025.32
2018-11-29T23:20:55.070Z,101020.53
2018-11-29T23:23:23.785Z,101028.89
2018-11-29T23:25:52.542Z,101016.45
2018-11-29T23:28:22.321Z,101017.19
2018-11-29T23:30:51.705Z,101030.28
2018-11-29T23:33:20.796Z,101032.38
2018-11-29T23:35:49.502Z,101027.63
2018-11-29T23:38:18.998Z,101022.80
2018-11-29T23:40:48.512Z,101023.83
2018-11-29T23:43:17.287Z,101025.88
2018-11-29T23:45:46.676Z,101031.72
2018-11-29T23:48:16.426Z,101021.71
2018-11-29T23:50:45.436Z,101016.30
2018-11-29T23:53:14.490Z,100999.03
2018-11-29T23:55:43.193Z,100990.86
2018-11-29T23:58:11.902Z,100993.47
